Pagrindinis puslapis
METAR-TAF:

METAR-TAF

Oro uostai :

Kirsch Municipal Airport

Sturgis, Mičiganas, Jungtinės Amerikos Valstijos

platuma: 41-48-46N, ilguma: 085-26-21W, Aukštis: 282 m

Dabartinis oras

Ataskaita buvo paskelbta 27 minutes, ne 07:55 UTC
Vėjas 6 kt iš Šiaurės Rytų
Temperatūra 9°C
Drėgmė 87%
Slėgis 1023 hPa
Matomumas: 16.1 km
Giedras dangus

METAR: KIRS 180755Z AUTO 04006KT 10SM CLR 09/07 A3020 RMK AO2 T00900070

Laikas: 04:22 (08:22 UTC)


TAF: trūkstamas

Orai ataskaitas ir orų prognozės (METAR, TAF).

turimą stotys yra geltonos ir raudonos taškus žemėlapyje.

Perkelti pele per norėdami pamatyti stoties vardą.

Tada spustelėkite, norėdami matyti oro stebėjimo ir prognozės.

Norėdami pakeisti žemėlapį: spustelėkite ant žalios mygtukų su juodo kryžiaus žemyn,; žalią mygtuką su brūkšneliu, jei norite nutolinti; arba žalių rodyklių gretimoms žemėlapius.


METAR-TAF: